Time;durP1;ratioP1;P1;durP2;ratioP2;P2;SDS_P1;SDS_P2;PMS_P1;PMS_P2;Temp;Humidity;BMP_temperature;BMP_pressure;BME280_temperature;BME280_humidity;BME280_pressure;Samples;Min_cycle;Max_cycle;Signal;HPM_P1;HPM_P2
2023/05/08 00:01:54;;;;;;;;;;;;;;;17.56;46.59;101183.34;5080071;28;1102;-55
2023/05/08 00:04:20;;;;;;;;;;;;;;;16.82;47.39;101173.38;5079140;28;1153;-53
2023/05/08 00:06:46;;;;;;;;;;;;;;;16.93;47.66;101175.13;5081633;28;1154;-55
2023/05/08 00:09:11;;;;;;;;;;;;;;;17.25;47.76;101185.16;5051542;28;2008;-55
2023/05/08 00:11:37;;;;;;;;;;;;;;;16.70;47.84;101182.63;5084285;28;1093;-56
2023/05/08 00:14:02;;;;;;;;;;;;;;;16.56;46.97;101173.19;5079114;28;1077;-55
2023/05/08 00:16:28;;;;;;;;;;;;;;;16.49;46.42;101169.84;5078940;28;1067;-55
2023/05/08 00:18:54;;;;;;;;;;;;;;;17.54;47.14;101184.72;5078872;28;1098;-54
2023/05/08 00:21:19;;;;;;;;;;;;;;;16.74;47.87;101175.50;5078722;28;1082;-54
2023/05/08 00:23:45;;;;;;;;;;;;;;;16.64;46.80;101171.88;5078705;28;883;-55
2023/05/08 00:26:10;;;;;;;;;;;;;;;16.42;46.51;101181.91;5078564;28;1105;-53
2023/05/08 00:28:36;;;;;;;;;;;;;;;17.54;46.71;101179.22;5078523;28;1984;-53
2023/05/08 00:31:02;;;;;;;;;;;;;;;16.82;47.43;101179.69;5078220;28;1031;-51
2023/05/08 00:33:27;;;;;;;;;;;;;;;16.56;46.85;101181.44;5060843;28;1431;-51
2023/05/08 00:36:02;;;;;;;;;;;;;;;16.42;46.30;101173.66;5084377;28;1019;-50
2023/05/08 00:38:34;;;;;;;;;;;;;;;17.32;47.11;101174.75;5058971;28;1107;-50
2023/05/08 00:41:01;;;;;;;;;;;;;;;16.66;47.56;101181.53;5058019;28;1106;-53
2023/05/08 00:43:27;;;;;;;;;;;;;;;16.55;46.62;101177.88;5079090;28;1063;-50
2023/05/08 00:45:55;;;;;;;;;;;;;;;16.39;46.31;101182.41;5060335;28;1306;-50
2023/05/08 00:48:24;;;;;;;;;;;;;;;16.32;45.57;101184.53;5078035;28;1906;-50
2023/05/08 00:50:51;;;;;;;;;;;;;;;16.48;46.11;101180.03;5078200;28;1019;-50
2023/05/08 00:53:16;;;;;;;;;;;;;;;16.67;47.18;101183.16;5078338;28;1054;-48
2023/05/08 00:55:42;;;;;;;;;;;;;;;16.39;46.84;101182.41;5060459;28;1113;-53
2023/05/08 00:58:08;;;;;;;;;;;;;;;16.30;46.19;101174.91;5078456;28;1209;-50
2023/05/08 01:00:34;;;;;;;;;;;;;;;17.44;46.37;101180.81;5067796;28;1141;-50
2023/05/08 01:03:00;;;;;;;;;;;;;;;16.69;47.33;101181.00;5059789;28;1626;-49
2023/05/08 01:05:26;;;;;;;;;;;;;;;16.42;46.68;101178.31;5078046;28;1150;-49
2023/05/08 01:07:52;;;;;;;;;;;;;;;16.30;46.24;101177.66;5070575;28;1910;-51
2023/05/08 01:10:17;;;;;;;;;;;;;;;17.26;46.82;101181.31;5058062;28;1123;-48
2023/05/08 01:13:03;;;;;;;;;;;;;;;16.56;47.39;101182.28;5054036;28;885;-53
2023/05/08 01:15:30;;;;;;;;;;;;;;;16.33;46.60;101172.47;5049146;28;1055;-50
2023/05/08 01:17:58;;;;;;;;;;;;;;;17.38;46.69;101170.09;5086528;28;1166;-53
2023/05/08 01:20:24;;;;;;;;;;;;;;;16.55;47.68;101168.78;5077683;28;1052;-51
2023/05/08 01:22:59;;;;;;;;;;;;;;;17.52;47.14;101167.69;5077700;28;1229;-51
2023/05/08 01:25:43;;;;;;;;;;;;;;;17.40;48.06;101168.75;5078630;28;1472;-47
2023/05/08 01:28:21;;;;;;;;;;;;;;;16.83;47.91;101158.53;5079594;28;1909;-50
2023/05/08 01:30:52;;;;;;;;;;;;;;;16.63;46.87;101149.06;5059552;28;1350;-46
2023/05/08 01:33:44;;;;;;;;;;;;;;;16.56;46.31;101153.97;5077521;28;1031;-48
2023/05/08 01:36:13;;;;;;;;;;;;;;;17.04;47.67;101143.84;5046811;28;1274;-49
2023/05/08 01:38:59;;;;;;;;;;;;;;;16.67;47.25;101154.88;5077662;28;1138;-49
2023/05/08 01:41:25;;;;;;;;;;;;;;;16.54;46.31;101159.75;5076653;28;1414;-48
2023/05/08 01:43:52;;;;;;;;;;;;;;;16.37;45.89;101157.16;5076735;28;1168;-52
2023/05/08 01:46:18;;;;;;;;;;;;;;;16.31;45.65;101152.69;5077300;28;1102;-47
2023/05/08 01:48:51;;;;;;;;;;;;;;;17.08;46.61;101155.97;5059167;28;1906;-53
2023/05/08 01:51:18;;;;;;;;;;;;;;;16.53;47.17;101155.31;5059106;28;1125;-53
2023/05/08 01:53:44;;;;;;;;;;;;;;;16.35;46.51;101158.50;5059165;28;1083;-49
2023/05/08 01:56:11;;;;;;;;;;;;;;;16.36;45.86;101152.75;5077121;28;1062;-52
2023/05/08 01:58:37;;;;;;;;;;;;;;;16.92;46.98;101146.00;5059036;28;1207;-54
2023/05/08 02:01:03;;;;;;;;;;;;;;;16.49;46.99;101140.47;5065007;28;1223;-51
2023/05/08 02:03:29;;;;;;;;;;;;;;;16.36;46.21;101155.47;5058737;28;1066;-51
2023/05/08 02:05:55;;;;;;;;;;;;;;;16.98;46.84;101160.59;5060906;28;1186;-52
2023/05/08 02:08:20;;;;;;;;;;;;;;;16.51;47.15;101156.69;5064118;28;1975;-51
2023/05/08 02:10:46;;;;;;;;;;;;;;;16.39;46.55;101154.13;5059019;28;1098;-53
2023/05/08 02:13:12;;;;;;;;;;;;;;;16.21;45.96;101152.63;5045573;28;1319;-52
2023/05/08 02:15:37;;;;;;;;;;;;;;;17.17;46.58;101153.53;5058910;28;1043;-52
2023/05/08 02:18:06;;;;;;;;;;;;;;;16.52;46.87;101150.09;5076224;28;1089;-53
2023/05/08 02:20:32;;;;;;;;;;;;;;;17.77;46.49;101153.97;5076718;28;1073;-50
2023/05/08 02:22:57;;;;;;;;;;;;;;;17.25;47.82;101161.25;5076625;28;1197;-51
2023/05/08 02:25:23;;;;;;;;;;;;;;;16.73;47.52;101154.66;5064096;28;842;-49
2023/05/08 02:27:48;;;;;;;;;;;;;;;16.62;46.60;101152.09;5076457;28;1914;-51
2023/05/08 02:30:16;;;;;;;;;;;;;;;16.43;46.27;101145.09;5076867;28;1202;-49
2023/05/08 02:32:42;;;;;;;;;;;;;;;16.20;46.29;101148.22;5058426;28;1233;-48
2023/05/08 02:35:08;;;;;;;;;;;;;;;16.36;46.21;101146.44;5042186;28;1450;-47
2023/05/08 02:37:34;;;;;;;;;;;;;;;16.98;47.15;101141.34;5058237;28;1041;-53
2023/05/08 02:40:00;;;;;;;;;;;;;;;16.56;47.26;101156.72;5043450;28;1470;-50
2023/05/08 02:42:25;;;;;;;;;;;;;;;17.08;47.10;101144.13;5071695;28;1056;-51
2023/05/08 02:44:51;;;;;;;;;;;;;;;16.85;47.29;101146.19;5053934;28;1166;-53
2023/05/08 02:47:20;;;;;;;;;;;;;;;16.45;47.22;101144.84;5028488;28;1371;-51
2023/05/08 02:49:46;;;;;;;;;;;;;;;17.31;47.36;101139.31;5025756;28;1906;-51
2023/05/08 02:52:13;;;;;;;;;;;;;;;16.70;47.54;101149.66;5029638;28;1166;-56
2023/05/08 02:54:56;;;;;;;;;;;;;;;16.67;47.38;101138.41;5034624;28;1262;-54
2023/05/08 02:57:22;;;;;;;;;;;;;;;16.99;47.53;101146.56;5034961;28;1107;-56
2023/05/08 02:59:54;;;;;;;;;;;;;;;16.61;47.11;101145.78;5029098;28;1076;-54
2023/05/08 03:02:23;;;;;;;;;;;;;;;16.51;46.47;101141.06;5038109;28;1247;-55
2023/05/08 03:04:49;;;;;;;;;;;;;;;17.12;46.97;101139.75;5033807;28;1587;-55
2023/05/08 03:07:15;;;;;;;;;;;;;;;16.71;47.16;101137.59;5025247;28;1256;-55
2023/05/08 03:09:42;;;;;;;;;;;;;;;16.55;46.57;101142.19;5028132;28;1906;-55
2023/05/08 03:12:09;;;;;;;;;;;;;;;16.28;46.08;101136.75;5024647;28;1321;-55
2023/05/08 03:14:36;;;;;;;;;;;;;;;16.29;45.40;101143.09;5024594;28;1127;-54
2023/05/08 03:17:02;;;;;;;;;;;;;;;16.86;46.78;101153.34;5016450;28;1325;-54
2023/05/08 03:19:29;;;;;;;;;;;;;;;16.47;46.82;101155.59;5016855;28;1314;-55
2023/05/08 03:21:54;;;;;;;;;;;;;;;16.89;46.49;101154.78;5034907;28;1364;-55
2023/05/08 03:24:20;;;;;;;;;;;;;;;16.80;47.25;101159.88;5034706;28;1317;-55
2023/05/08 03:26:46;;;;;;;;;;;;;;;16.46;46.82;101160.22;5034653;28;1075;-54
2023/05/08 03:29:13;;;;;;;;;;;;;;;16.37;46.15;101159.06;5034459;28;1983;-53
2023/05/08 03:31:39;;;;;;;;;;;;;;;17.01;46.98;101160.88;5034558;28;1060;-56
2023/05/08 03:34:06;;;;;;;;;;;;;;;16.48;47.05;101159.97;5034782;28;1087;-56
2023/05/08 03:36:32;;;;;;;;;;;;;;;16.35;46.33;101164.81;5038413;28;1130;-58
2023/05/08 03:38:58;;;;;;;;;;;;;;;16.69;46.60;101164.50;5029173;28;1170;-58
2023/05/08 03:41:24;;;;;;;;;;;;;;;16.80;47.11;101170.88;5038709;28;1146;-58
2023/05/08 03:43:49;;;;;;;;;;;;;;;16.37;47.10;101167.31;5039451;28;1170;-58
2023/05/08 03:46:15;;;;;;;;;;;;;;;16.21;46.41;101164.41;5038000;28;1138;-58
2023/05/08 03:48:41;;;;;;;;;;;;;;;16.22;45.58;101168.00;5040089;28;1916;-54
2023/05/08 03:51:06;;;;;;;;;;;;;;;17.17;46.44;101180.19;5039746;28;1062;-56
2023/05/08 03:53:35;;;;;;;;;;;;;;;16.58;47.00;101173.78;5038403;28;1343;-57
2023/05/08 03:56:02;;;;;;;;;;;;;;;16.81;47.16;101174.47;5038235;28;1145;-57
2023/05/08 03:58:30;;;;;;;;;;;;;;;17.41;47.17;101172.31;5037804;28;1321;-57
2023/05/08 04:00:56;;;;;;;;;;;;;;;16.66;47.85;101170.53;5038493;28;1023;-57
2023/05/08 04:03:24;;;;;;;;;;;;;;;16.47;46.92;101169.31;5037684;28;1126;-57
2023/05/08 04:06:19;;;;;;;;;;;;;;;16.35;46.34;101169.47;5022952;28;1172;-56
2023/05/08 04:08:48;;;;;;;;;;;;;;;17.62;46.75;101184.19;5005425;28;1906;-55
2023/05/08 04:11:16;;;;;;;;;;;;;;;16.69;47.88;101189.22;5020393;28;1258;-56
2023/05/08 04:13:45;;;;;;;;;;;;;;;16.56;47.07;101181.44;5019992;28;1333;-56
2023/05/08 04:16:11;;;;;;;;;;;;;;;16.42;46.16;101187.38;5001662;28;1251;-55
2023/05/08 04:18:38;;;;;;;;;;;;;;;16.29;45.81;101185.06;5017430;28;1278;-55
2023/05/08 04:21:07;;;;;;;;;;;;;;;16.15;45.84;101186.59;5048389;28;1111;-50
2023/05/08 04:23:33;;;;;;;;;;;;;;;16.36;45.94;101188.41;5021524;28;1666;-49
2023/05/08 04:25:59;;;;;;;;;;;;;;;16.68;47.13;101179.31;5037122;28;1423;-51
2023/05/08 04:28:25;;;;;;;;;;;;;;;16.42;46.79;101176.41;5025884;28;1906;-50
2023/05/08 04:30:51;;;;;;;;;;;;;;;16.55;47.02;101174.28;5037745;28;1264;-51
2023/05/08 04:33:17;;;;;;;;;;;;;;;16.80;47.42;101173.63;5024814;28;1131;-50
2023/05/08 04:35:45;;;;;;;;;;;;;;;16.47;47.33;101167.38;5037240;28;1332;-51
2023/05/08 04:38:11;;;;;;;;;;;;;;;18.18;46.42;101166.16;5035781;28;1254;-52
2023/05/08 04:40:36;;;;;;;;;;;;;;;16.99;48.12;101163.06;5032947;28;1248;-54
2023/05/08 04:43:02;;;;;;;;;;;;;;;16.62;47.63;101174.06;5037333;28;1099;-54
2023/05/08 04:45:28;;;;;;;;;;;;;;;16.53;46.88;101181.97;5038931;28;1225;-54
2023/05/08 04:47:54;;;;;;;;;;;;;;;16.37;46.35;101179.09;5078303;28;1902;-54
2023/05/08 04:50:19;;;;;;;;;;;;;;;16.60;46.55;101180.63;5072916;28;1147;-52
2023/05/08 04:52:45;;;;;;;;;;;;;;;16.87;47.30;101176.13;5060634;28;1205;-51
2023/05/08 04:55:11;;;;;;;;;;;;;;;16.52;46.95;101183.06;5060221;28;1593;-53
2023/05/08 04:57:37;;;;;;;;;;;;;;;16.42;46.11;101181.06;5060508;28;1332;-47
2023/05/08 05:00:05;;;;;;;;;;;;;;;17.59;46.35;101193.00;5059665;28;1155;-50
2023/05/08 05:02:33;;;;;;;;;;;;;;;17.25;47.19;101190.66;5067589;28;1102;-52
2023/05/08 05:05:00;;;;;;;;;;;;;;;17.24;47.10;101192.56;5060289;28;1396;-50
2023/05/08 05:07:26;;;;;;;;;;;;;;;16.92;47.75;101196.25;5066399;28;1337;-48
2023/05/08 05:09:52;;;;;;;;;;;;;;;16.68;48.61;101189.50;5064639;28;1922;-48
2023/05/08 05:12:18;;;;;;;;;;;;;;;16.56;48.81;101190.50;5060212;28;1242;-53
2023/05/08 05:14:44;;;;;;;;;;;;;;;16.44;49.46;101176.16;5060283;28;1119;-49
2023/05/08 05:17:10;;;;;;;;;;;;;;;16.35;49.72;101173.03;5060258;28;1301;-54
2023/05/08 05:19:35;;;;;;;;;;;;;;;16.24;49.75;101168.56;5077991;28;1212;-48
2023/05/08 05:22:01;;;;;;;;;;;;;;;16.16;50.11;101163.53;5077760;28;1265;-51
2023/05/08 05:24:28;;;;;;;;;;;;;;;17.09;47.90;101167.78;5059409;28;1339;-52
2023/05/08 05:26:53;;;;;;;;;;;;;;;16.99;47.93;101168.56;5079463;28;996;-52
2023/05/08 05:29:19;;;;;;;;;;;;;;;16.54;49.24;101167.97;5040289;28;1917;-49
2023/05/08 05:31:45;;;;;;;;;;;;;;;16.29;49.86;101168.59;5059730;28;1114;-51
2023/05/08 05:34:11;;;;;;;;;;;;;;;16.22;50.33;101165.25;5059619;28;1135;-51
2023/05/08 05:36:37;;;;;;;;;;;;;;;16.11;50.37;101167.09;5059505;28;1141;-53
2023/05/08 05:39:03;;;;;;;;;;;;;;;17.51;47.20;101174.28;5061975;28;1388;-49
2023/05/08 05:41:31;;;;;;;;;;;;;;;16.84;48.78;101174.75;5059473;28;1210;-49
2023/05/08 05:43:56;;;;;;;;;;;;;;;16.49;49.78;101169.84;5076739;28;1073;-49
2023/05/08 05:46:26;;;;;;;;;;;;;;;16.23;50.33;101167.75;5059412;28;1201;-52
2023/05/08 05:48:52;;;;;;;;;;;;;;;17.67;46.89;101178.72;5077398;28;1913;-54
2023/05/08 05:51:18;;;;;;;;;;;;;;;16.83;49.18;101167.63;5058950;28;1400;-50
2023/05/08 05:53:44;;;;;;;;;;;;;;;16.55;49.73;101174.28;5077255;28;1054;-49
2023/05/08 05:56:10;;;;;;;;;;;;;;;16.39;50.35;101168.69;5077308;28;1138;-49
2023/05/08 05:58:36;;;;;;;;;;;;;;;16.25;50.51;101167.47;5059126;28;1185;-52
2023/05/08 06:01:02;;;;;;;;;;;;;;;16.37;50.43;101172.81;5077037;28;1146;-51
2023/05/08 06:03:28;;;;;;;;;;;;;;;17.66;47.08;101171.56;5047688;28;1190;-52
2023/05/08 06:05:54;;;;;;;;;;;;;;;16.86;49.10;101178.06;5067116;28;1039;-52
2023/05/08 06:08:20;;;;;;;;;;;;;;;16.53;50.22;101181.97;5068610;28;1906;-51
2023/05/08 06:10:45;;;;;;;;;;;;;;;16.37;50.61;101179.09;5077106;28;1202;-54
2023/05/08 06:13:11;;;;;;;;;;;;;;;16.63;50.17;101186.69;5076822;28;1186;-55
2023/05/08 06:15:37;;;;;;;;;;;;;;;17.60;47.70;101184.47;5069759;28;1162;-55
2023/05/08 06:18:02;;;;;;;;;;;;;;;16.87;49.62;101181.63;5076884;28;1078;-55
2023/05/08 06:20:28;;;;;;;;;;;;;;;16.58;50.43;101190.25;5058815;28;1091;-53
2023/05/08 06:22:54;;;;;;;;;;;;;;;16.41;50.59;101190.38;5076612;28;1110;-56
2023/05/08 06:25:19;;;;;;;;;;;;;;;16.29;51.10;101185.06;5077037;28;1121;-53
2023/05/08 06:27:45;;;;;;;;;;;;;;;16.89;49.71;101191.28;5076487;28;1905;-55
2023/05/08 06:30:11;;;;;;;;;;;;;;;17.36;48.48;101189.63;5076124;28;1097;-54
2023/05/08 06:32:36;;;;;;;;;;;;;;;16.74;50.22;101189.25;5076170;28;1249;-55
2023/05/08 06:35:02;;;;;;;;;;;;;;;16.55;50.75;101190.75;5076041;28;1159;-55
2023/05/08 06:37:28;;;;;;;;;;;;;;;16.36;51.21;101188.41;5076386;28;1206;-53
2023/05/08 06:39:53;;;;;;;;;;;;;;;17.19;49.11;101183.47;5076231;28;1101;-55
2023/05/08 06:42:19;;;;;;;;;;;;;;;17.22;48.93;101192.03;5076159;28;1130;-54
2023/05/08 06:44:45;;;;;;;;;;;;;;;16.69;50.33;101194.72;5076377;28;1181;-56
2023/05/08 06:47:11;;;;;;;;;;;;;;;16.49;51.00;101195.38;5076264;28;1327;-55
2023/05/08 06:49:36;;;;;;;;;;;;;;;16.39;51.13;101196.13;5076533;28;1972;-55
2023/05/08 06:52:02;;;;;;;;;;;;;;;17.35;49.16;101204.44;5082988;28;1098;-55
2023/05/08 06:54:27;;;;;;;;;;;;;;;17.01;49.67;101207.59;5080821;28;1157;-55
2023/05/08 06:56:53;;;;;;;;;;;;;;;16.59;50.76;101200.13;5071013;28;1130;-55
2023/05/08 06:59:20;;;;;;;;;;;;;;;16.38;51.46;101197.22;5076335;28;1082;-55
2023/05/08 07:01:45;;;;;;;;;;;;;;;17.18;49.47;101201.06;5076278;28;1077;-55
2023/05/08 07:04:11;;;;;;;;;;;;;;;17.20;49.41;101185.97;5080395;28;1193;-56
2023/05/08 07:06:36;;;;;;;;;;;;;;;16.73;50.55;101193.09;5076667;28;1024;-55
2023/05/08 07:09:02;;;;;;;;;;;;;;;16.50;51.42;101182.50;5075886;28;1972;-53
2023/05/08 07:11:28;;;;;;;;;;;;;;;16.42;51.36;101176.41;5075242;28;1059;-56
2023/05/08 07:13:53;;;;;;;;;;;;;;;16.23;51.89;101175.16;5076366;28;1055;-55
2023/05/08 07:16:19;;;;;;;;;;;;;;;16.91;50.53;101177.28;5081075;28;1056;-55
2023/05/08 07:18:44;;;;;;;;;;;;;;;17.30;49.17;101167.88;5075874;28;1101;-54
2023/05/08 07:21:10;;;;;;;;;;;;;;;16.67;50.88;101172.16;5076171;28;1110;-55
2023/05/08 07:23:35;;;;;;;;;;;;;;;16.43;51.75;101172.56;5076332;28;1123;-47
2023/05/08 07:26:01;;;;;;;;;;;;;;;16.29;51.82;101182.31;5076271;28;1189;-51
2023/05/08 07:28:27;;;;;;;;;;;;;;;16.42;51.66;101179.16;5055970;28;1973;-53
2023/05/08 07:30:52;;;;;;;;;;;;;;;17.49;49.11;101192.94;5069460;28;1078;-53
2023/05/08 07:33:18;;;;;;;;;;;;;;;16.72;51.15;101185.94;5076209;28;1026;-53
2023/05/08 07:35:44;;;;;;;;;;;;;;;16.46;51.66;101195.09;5075459;28;1047;-49
2023/05/08 07:38:09;;;;;;;;;;;;;;;16.36;52.15;101193.91;5077493;28;1221;-51
2023/05/08 07:40:35;;;;;;;;;;;;;;;16.33;52.15;101199.94;5082201;28;1140;-53
2023/05/08 07:43:01;;;;;;;;;;;;;;;17.60;49.02;101200.16;5075763;28;1117;-54
2023/05/08 07:45:26;;;;;;;;;;;;;;;16.77;51.15;101204.38;5075766;28;1119;-53
2023/05/08 07:47:52;;;;;;;;;;;;;;;16.51;51.83;101200.59;5075766;28;1977;-52
2023/05/08 07:50:18;;;;;;;;;;;;;;;16.33;51.99;101208.16;5077146;28;1114;-58
2023/05/08 07:52:44;;;;;;;;;;;;;;;16.30;52.33;101210.59;5075742;28;1103;-57
2023/05/08 07:55:09;;;;;;;;;;;;;;;17.71;48.96;101201.84;5075032;28;1070;-53
2023/05/08 07:57:37;;;;;;;;;;;;;;;16.91;50.87;101202.88;5075372;28;1034;-56
2023/05/08 08:00:04;;;;;;;;;;;;;;;16.54;51.81;101205.59;5075642;28;1174;-56
2023/05/08 08:02:38;;;;;;;;;;;;;;;16.41;52.09;101202.19;5075257;28;1127;-55
2023/05/08 08:05:04;;;;;;;;;;;;;;;16.27;52.51;101200.13;5070981;28;1055;-55
2023/05/08 08:07:33;;;;;;;;;;;;;;;16.32;52.30;101201.00;5059942;28;1278;-52
2023/05/08 08:09:59;;;;;;;;;;;;;;;17.63;48.96;101188.59;5054865;28;1979;-52
2023/05/08 08:12:25;;;;;;;;;;;;;;;16.76;51.09;101187.06;5055446;28;1215;-50
2023/05/08 08:14:50;;;;;;;;;;;;;;;16.49;51.83;101186.31;5056709;28;1178;-53
2023/05/08 08:17:16;;;;;;;;;;;;;;;16.32;52.38;101195.53;5055167;28;1218;-51
2023/05/08 08:19:42;;;;;;;;;;;;;;;16.23;52.61;101184.19;5054929;28;1299;-54
2023/05/08 08:22:07;;;;;;;;;;;;;;;16.99;50.82;101186.97;5063448;28;1269;-54
2023/05/08 08:24:33;;;;;;;;;;;;;;;17.34;49.56;101185.47;5076732;28;1222;-50
2023/05/08 08:26:58;;;;;;;;;;;;;;;16.71;51.34;101183.47;5075440;28;1285;-51
2023/05/08 08:29:24;;;;;;;;;;;;;;;16.45;52.36;101179.69;5058650;28;1910;-54
2023/05/08 08:31:50;;;;;;;;;;;;;;;16.53;52.02;101177.28;5058406;28;1230;-50
2023/05/08 08:34:15;;;;;;;;;;;;;;;17.55;49.53;101180.88;5058103;28;1308;-50
2023/05/08 08:36:41;;;;;;;;;;;;;;;16.81;51.46;101172.53;5057850;28;1206;-53
2023/05/08 08:39:07;;;;;;;;;;;;;;;16.55;51.94;101171.53;5062029;28;1249;-52
2023/05/08 08:41:32;;;;;;;;;;;;;;;16.36;52.44;101166.47;5058427;28;1245;-54
2023/05/08 08:43:58;;;;;;;;;;;;;;;16.22;52.92;101157.84;5058491;28;1190;-52
2023/05/08 08:46:24;;;;;;;;;;;;;;;17.27;50.40;101166.47;5039860;28;1211;-54
2023/05/08 08:48:50;;;;;;;;;;;;;;;17.16;50.46;101162.03;5068787;28;1967;-54
2023/05/08 08:51:27;;;;;;;;;;;;;;;16.65;52.00;101168.88;5059256;28;1250;-55
2023/05/08 08:53:54;;;;;;;;;;;;;;;16.41;52.34;101163.75;5048378;28;1405;-53
2023/05/08 08:56:21;;;;;;;;;;;;;;;16.23;53.01;101159.50;5040205;28;1211;-52
2023/05/08 08:58:49;;;;;;;;;;;;;;;16.15;53.01;101167.41;5053621;28;1222;-55
2023/05/08 09:01:15;;;;;;;;;;;;;;;17.20;50.76;101168.66;5066608;28;1059;-55
2023/05/08 09:03:41;;;;;;;;;;;;;;;17.13;50.59;101168.09;5077961;28;1150;-55
2023/05/08 09:06:06;;;;;;;;;;;;;;;16.65;51.91;101160.63;5081706;28;1217;-55
2023/05/08 09:08:32;;;;;;;;;;;;;;;16.38;52.58;101156.06;5082767;28;1894;-52
2023/05/08 09:10:58;;;;;;;;;;;;;;;16.21;52.87;101152.63;5060399;28;1162;-55
2023/05/08 09:13:24;;;;;;;;;;;;;;;17.29;50.56;101150.53;5060305;28;1323;-55
2023/05/08 09:15:49;;;;;;;;;;;;;;;17.38;50.17;101148.94;5069891;28;848;-48
2023/05/08 09:18:15;;;;;;;;;;;;;;;16.76;51.77;101143.13;5075860;28;1122;-54
2023/05/08 09:20:41;;;;;;;;;;;;;;;16.54;52.52;101156.19;5079619;28;1185;-54
2023/05/08 09:23:06;;;;;;;;;;;;;;;16.38;52.55;101157.97;5060800;28;1198;-54
2023/05/08 09:25:47;;;;;;;;;;;;;;;16.22;52.94;101162.50;5074518;28;1190;-53
2023/05/08 09:28:16;;;;;;;;;;;;;;;17.74;49.41;101168.28;5057565;28;1905;-51
2023/05/08 09:30:49;;;;;;;;;;;;;;;16.98;51.41;101166.06;5061998;28;1289;-53
2023/05/08 09:33:15;;;;;;;;;;;;;;;16.55;52.37;101166.88;5077729;28;1043;-47
2023/05/08 09:35:40;;;;;;;;;;;;;;;16.36;52.99;101162.91;5058929;28;1062;-50
2023/05/08 09:38:06;;;;;;;;;;;;;;;16.28;53.21;101160.63;5059859;28;1122;-48
2023/05/08 09:40:31;;;;;;;;;;;;;;;16.45;52.95;101160.50;5085367;28;1111;-48
2023/05/08 09:42:57;;;;;;;;;;;;;;;17.63;49.83;101163.84;5062842;28;1218;-53
2023/05/08 09:45:30;;;;;;;;;;;;;;;16.77;51.83;101160.44;5039318;28;1313;-52
2023/05/08 09:47:55;;;;;;;;;;;;;;;16.49;52.92;101170.66;5075146;28;1909;-54
2023/05/08 09:50:21;;;;;;;;;;;;;;;16.33;53.07;101166.19;5063656;28;1293;-49
2023/05/08 09:52:47;;;;;;;;;;;;;;;16.23;53.15;101158.69;5082954;28;907;-51
2023/05/08 09:55:13;;;;;;;;;;;;;;;17.44;50.49;101164.34;5076543;28;1130;-54
2023/05/08 09:57:39;;;;;;;;;;;;;;;17.21;51.12;101154.66;5059665;28;1198;-48
2023/05/08 10:00:08;;;;;;;;;;;;;;;16.68;52.37;101149.13;5058726;28;1034;-55
2023/05/08 10:02:36;;;;;;;;;;;;;;;16.48;52.85;101158.06;5076796;28;1158;-52
2023/05/08 10:05:02;;;;;;;;;;;;;;;16.35;53.05;101156.56;5090013;28;883;-49
2023/05/08 10:07:31;;;;;;;;;;;;;;;16.25;53.21;101156.50;5071518;28;1215;-52
2023/05/08 10:09:57;;;;;;;;;;;;;;;16.57;52.92;101161.13;5060402;28;1906;-52
2023/05/08 10:12:22;;;;;;;;;;;;;;;17.56;50.44;101163.28;5076974;28;1217;-55
2023/05/08 10:14:48;;;;;;;;;;;;;;;16.76;52.34;101158.78;5076610;28;1446;-48
2023/05/08 10:17:14;;;;;;;;;;;;;;;16.53;52.86;101166.31;5084066;28;903;-56
2023/05/08 10:19:39;;;;;;;;;;;;;;;16.28;53.40;101169.69;5058430;28;1153;-53
2023/05/08 10:22:05;;;;;;;;;;;;;;;16.17;53.72;101165.22;5076148;28;1057;-55
2023/05/08 10:24:33;;;;;;;;;;;;;;;17.62;50.49;101170.44;5059345;28;1226;-53
2023/05/08 10:27:11;;;;;;;;;;;;;;;16.87;52.33;101165.16;5058947;28;1066;-55
2023/05/08 10:29:40;;;;;;;;;;;;;;;16.57;52.82;101161.13;5078909;28;1901;-55
2023/05/08 10:32:07;;;;;;;;;;;;;;;16.33;53.29;101152.47;5076436;28;1146;-52
2023/05/08 10:34:33;;;;;;;;;;;;;;;16.41;53.25;101152.78;5058440;28;1131;-55
2023/05/08 10:36:58;;;;;;;;;;;;;;;17.65;50.35;101152.59;5076258;28;1121;-54
2023/05/08 10:39:24;;;;;;;;;;;;;;;16.84;52.39;101143.72;5076258;28;1111;-55
2023/05/08 10:41:50;;;;;;;;;;;;;;;16.54;53.23;101145.19;5058595;28;1043;-55
2023/05/08 10:44:15;;;;;;;;;;;;;;;16.31;53.68;101136.22;5076429;28;1102;-55
2023/05/08 10:46:45;;;;;;;;;;;;;;;16.24;53.82;101144.72;5057781;28;1023;-52
2023/05/08 10:49:49;;;;;;;;;;;;;;;17.35;51.27;101143.97;5058173;28;1963;-54
2023/05/08 10:52:20;;;;;;;;;;;;;;;16.95;52.01;101148.19;4994402;28;1306;-50
2023/05/08 10:55:03;;;;;;;;;;;;;;;16.55;52.99;101152.31;4994222;28;1255;-52
2023/05/08 10:57:29;;;;;;;;;;;;;;;16.34;53.52;101151.34;5033188;28;1315;-57
2023/05/08 10:59:54;;;;;;;;;;;;;;;17.77;50.35;101151.22;5076358;28;1143;-50
2023/05/08 11:02:30;;;;;;;;;;;;;;;17.07;51.80;101159.00;5076058;28;1089;-48
2023/05/08 11:05:15;;;;;;;;;;;;;;;16.66;52.86;101154.06;5078602;28;853;-48
2023/05/08 11:07:56;;;;;;;;;;;;;;;16.45;53.61;101158.56;5087434;28;1082;-56
2023/05/08 11:10:22;;;;;;;;;;;;;;;16.29;53.74;101146.66;5075473;28;1130;-54
2023/05/08 11:12:47;;;;;;;;;;;;;;;16.87;52.68;101154.16;5053591;28;1241;-52
2023/05/08 11:15:13;;;;;;;;;;;;;;;17.27;51.41;101153.56;5056072;28;1266;-49
2023/05/08 11:17:45;;;;;;;;;;;;;;;16.72;52.75;101163.97;5060414;28;1226;-52
2023/05/08 11:20:10;;;;;;;;;;;;;;;16.48;53.41;101162.69;5055796;28;1183;-55
2023/05/08 11:22:37;;;;;;;;;;;;;;;16.31;53.65;101152.69;5049844;28;1238;-56
2023/05/08 11:25:09;;;;;;;;;;;;;;;16.30;54.09;101155.69;5076096;28;1090;-54
2023/05/08 11:27:36;;;;;;;;;;;;;;;17.61;50.68;101155.03;5076002;28;1135;-56
2023/05/08 11:30:20;;;;;;;;;;;;;;;16.77;52.83;101168.66;5063136;28;1909;-56
2023/05/08 11:33:15;;;;;;;;;;;;;;;16.43;53.65;101171.75;5074115;28;1207;-55
2023/05/08 11:35:47;;;;;;;;;;;;;;;16.30;53.80;101173.00;5054941;28;1312;-49
2023/05/08 11:38:15;;;;;;;;;;;;;;;16.20;53.82;101161.94;5075193;28;1186;-48
2023/05/08 11:40:44;;;;;;;;;;;;;;;17.30;51.94;101167.88;5068083;28;1238;-56
2023/05/08 11:43:26;;;;;;;;;;;;;;;17.16;51.88;101168.34;5055142;28;1309;-56
2023/05/08 11:45:52;;;;;;;;;;;;;;;16.58;53.46;101166.34;5057005;28;1215;-55
2023/05/08 11:48:18;;;;;;;;;;;;;;;16.46;53.63;101164.91;5075403;28;1901;-56
2023/05/08 11:50:43;;;;;;;;;;;;;;;16.25;54.07;101164.72;5075365;28;1234;-52
2023/05/08 11:53:09;;;;;;;;;;;;;;;16.17;54.08;101156.97;5072076;28;1202;-56
2023/05/08 11:55:34;;;;;;;;;;;;;;;16.38;53.93;101163.44;5055624;28;1253;-56
2023/05/08 11:58:00;;;;;;;;;;;;;;;17.56;50.95;101152.28;5056552;28;1234;-56
2023/05/08 12:00:25;;;;;;;;;;;;;;;16.80;52.86;101159.06;5070342;28;1166;-55
2023/05/08 12:02:51;;;;;;;;;;;;;;;16.46;53.73;101170.38;5079004;28;1062;-56
2023/05/08 12:05:19;;;;;;;;;;;;;;;16.28;54.20;101157.91;5072814;28;1214;-56
2023/05/08 12:07:47;;;;;;;;;;;;;;;17.51;51.20;101166.84;5046084;28;1236;-56
2023/05/08 12:10:13;;;;;;;;;;;;;;;17.12;52.26;101163.66;5058977;28;1918;-57
2023/05/08 12:12:39;;;;;;;;;;;;;;;16.68;53.23;101171.09;5058880;28;1289;-56
2023/05/08 12:15:06;;;;;;;;;;;;;;;16.41;53.68;101162.91;5065255;28;1378;-48
2023/05/08 12:17:31;;;;;;;;;;;;;;;16.67;53.49;101166.69;5059582;28;1341;-49
2023/05/08 12:20:02;;;;;;;;;;;;;;;17.39;51.54;101153.34;5058878;28;1317;-54
2023/05/08 12:22:28;;;;;;;;;;;;;;;16.75;53.21;101151.63;5051971;28;1198;-55
2023/05/08 12:24:54;;;;;;;;;;;;;;;16.47;53.77;101152.84;5040706;28;1246;-54
2023/05/08 12:27:19;;;;;;;;;;;;;;;16.31;54.11;101152.69;5058355;28;1301;-54
2023/05/08 12:29:45;;;;;;;;;;;;;;;16.24;54.23;101152.09;5062808;28;1914;-51
2023/05/08 12:32:11;;;;;;;;;;;;;;;16.98;52.89;101144.91;5070928;28;1232;-46
2023/05/08 12:34:36;;;;;;;;;;;;;;;17.31;51.58;101150.28;5079073;28;1066;-56
2023/05/08 12:37:02;;;;;;;;;;;;;;;16.65;53.49;101140.56;5061106;28;1182;-54
2023/05/08 12:39:28;;;;;;;;;;;;;;;16.43;54.01;101142.34;5078645;28;1171;-57
2023/05/08 12:41:53;;;;;;;;;;;;;;;16.28;54.26;101136.75;5079817;28;910;-56
2023/05/08 12:44:22;;;;;;;;;;;;;;;17.53;51.44;101150.91;5067133;28;1066;-54
2023/05/08 12:46:48;;;;;;;;;;;;;;;17.08;52.31;101144.13;5075954;28;1194;-52
2023/05/08 12:49:21;;;;;;;;;;;;;;;16.66;53.72;101139.50;5078386;28;1960;-55